sensor_id;sensor_type;location;lat;lon;timestamp;temperature;humidity
18412;DHT22;27097;51.738;19.472;2023-06-22T00:01:12;26.10;80.70
18412;DHT22;27097;51.738;19.472;2023-06-22T00:03:42;26.20;80.30
18412;DHT22;27097;51.738;19.472;2023-06-22T00:06:09;26.20;79.80
18412;DHT22;27097;51.738;19.472;2023-06-22T00:08:35;26.30;79.50
18412;DHT22;27097;51.738;19.472;2023-06-22T00:11:04;26.30;79.30
18412;DHT22;27097;51.738;19.472;2023-06-22T00:13:30;26.30;78.80
18412;DHT22;27097;51.738;19.472;2023-06-22T00:15:57;26.30;79.40
18412;DHT22;27097;51.738;19.472;2023-06-22T00:18:24;26.40;78.50
18412;DHT22;27097;51.738;19.472;2023-06-22T00:20:54;26.40;79.90
18412;DHT22;27097;51.738;19.472;2023-06-22T00:23:23;26.40;83.80
18412;DHT22;27097;51.738;19.472;2023-06-22T00:25:51;26.40;86.20
18412;DHT22;27097;51.738;19.472;2023-06-22T00:28:19;26.40;81.70
18412;DHT22;27097;51.738;19.472;2023-06-22T00:30:46;26.30;79.50
18412;DHT22;27097;51.738;19.472;2023-06-22T00:33:14;25.90;79.10
18412;DHT22;27097;51.738;19.472;2023-06-22T00:35:41;25.60;79.40
18412;DHT22;27097;51.738;19.472;2023-06-22T00:38:08;25.40;80.80
18412;DHT22;27097;51.738;19.472;2023-06-22T00:40:35;25.30;82.00
18412;DHT22;27097;51.738;19.472;2023-06-22T00:43:02;25.20;82.00
18412;DHT22;27097;51.738;19.472;2023-06-22T00:45:31;25.10;81.90
18412;DHT22;27097;51.738;19.472;2023-06-22T00:47:58;25.00;82.40
18412;DHT22;27097;51.738;19.472;2023-06-22T00:50:27;25.00;82.40
18412;DHT22;27097;51.738;19.472;2023-06-22T00:53:00;24.90;82.90
18412;DHT22;27097;51.738;19.472;2023-06-22T00:55:29;24.90;83.70
18412;DHT22;27097;51.738;19.472;2023-06-22T00:57:56;24.90;82.70
18412;DHT22;27097;51.738;19.472;2023-06-22T01:00:24;24.90;82.50
18412;DHT22;27097;51.738;19.472;2023-06-22T01:02:53;25.00;82.10
18412;DHT22;27097;51.738;19.472;2023-06-22T01:05:21;24.90;82.20
18412;DHT22;27097;51.738;19.472;2023-06-22T01:07:58;24.80;82.70
18412;DHT22;27097;51.738;19.472;2023-06-22T01:10:33;24.80;82.60
18412;DHT22;27097;51.738;19.472;2023-06-22T01:13:07;24.80;82.40
18412;DHT22;27097;51.738;19.472;2023-06-22T01:15:40;24.80;82.40
18412;DHT22;27097;51.738;19.472;2023-06-22T01:18:14;24.70;82.40
18412;DHT22;27097;51.738;19.472;2023-06-22T01:20:41;24.70;82.70
18412;DHT22;27097;51.738;19.472;2023-06-22T01:23:15;24.60;82.80
18412;DHT22;27097;51.738;19.472;2023-06-22T01:25:46;24.60;82.90
18412;DHT22;27097;51.738;19.472;2023-06-22T01:30:53;24.60;82.80
18412;DHT22;27097;51.738;19.472;2023-06-22T01:33:29;24.50;82.70
18412;DHT22;27097;51.738;19.472;2023-06-22T01:35:58;24.50;82.80
18412;DHT22;27097;51.738;19.472;2023-06-22T01:38:26;24.40;83.00
18412;DHT22;27097;51.738;19.472;2023-06-22T01:40:55;24.40;83.10
18412;DHT22;27097;51.738;19.472;2023-06-22T01:43:24;24.30;83.00
18412;DHT22;27097;51.738;19.472;2023-06-22T01:45:53;24.30;83.10
18412;DHT22;27097;51.738;19.472;2023-06-22T01:48:21;24.30;82.70
18412;DHT22;27097;51.738;19.472;2023-06-22T01:50:48;24.30;82.90
18412;DHT22;27097;51.738;19.472;2023-06-22T01:53:15;24.30;83.10
18412;DHT22;27097;51.738;19.472;2023-06-22T01:55:42;24.30;82.80
18412;DHT22;27097;51.738;19.472;2023-06-22T01:58:09;24.30;83.10
18412;DHT22;27097;51.738;19.472;2023-06-22T02:00:38;24.30;82.80
18412;DHT22;27097;51.738;19.472;2023-06-22T02:03:11;24.30;82.70
18412;DHT22;27097;51.738;19.472;2023-06-22T02:05:48;24.30;82.40
18412;DHT22;27097;51.738;19.472;2023-06-22T02:08:19;24.20;82.60
18412;DHT22;27097;51.738;19.472;2023-06-22T02:10:47;24.20;82.30
18412;DHT22;27097;51.738;19.472;2023-06-22T02:13:15;24.20;82.10
18412;DHT22;27097;51.738;19.472;2023-06-22T02:15:43;24.30;81.60
18412;DHT22;27097;51.738;19.472;2023-06-22T02:18:12;24.30;81.10
18412;DHT22;27097;51.738;19.472;2023-06-22T02:20:39;24.20;81.10
18412;DHT22;27097;51.738;19.472;2023-06-22T02:23:06;24.20;80.80
18412;DHT22;27097;51.738;19.472;2023-06-22T02:25:34;24.20;80.70
18412;DHT22;27097;51.738;19.472;2023-06-22T02:28:01;24.10;80.30
18412;DHT22;27097;51.738;19.472;2023-06-22T02:30:28;24.10;80.10
18412;DHT22;27097;51.738;19.472;2023-06-22T02:32:55;24.10;79.90
18412;DHT22;27097;51.738;19.472;2023-06-22T02:35:27;24.00;80.00
18412;DHT22;27097;51.738;19.472;2023-06-22T02:37:56;24.00;80.10
18412;DHT22;27097;51.738;19.472;2023-06-22T02:40:23;24.00;80.60
18412;DHT22;27097;51.738;19.472;2023-06-22T02:42:50;24.00;79.90
18412;DHT22;27097;51.738;19.472;2023-06-22T02:45:17;24.00;79.60
18412;DHT22;27097;51.738;19.472;2023-06-22T02:47:44;24.00;79.70
18412;DHT22;27097;51.738;19.472;2023-06-22T02:50:11;24.00;79.60
18412;DHT22;27097;51.738;19.472;2023-06-22T02:52:39;24.00;79.60
18412;DHT22;27097;51.738;19.472;2023-06-22T02:55:07;24.00;79.20
18412;DHT22;27097;51.738;19.472;2023-06-22T02:57:34;24.00;79.00
18412;DHT22;27097;51.738;19.472;2023-06-22T03:00:03;24.00;78.50
18412;DHT22;27097;51.738;19.472;2023-06-22T03:02:40;24.00;78.90
18412;DHT22;27097;51.738;19.472;2023-06-22T03:05:07;23.90;78.50
18412;DHT22;27097;51.738;19.472;2023-06-22T03:07:41;23.90;78.60
18412;DHT22;27097;51.738;19.472;2023-06-22T03:10:08;23.90;79.00
18412;DHT22;27097;51.738;19.472;2023-06-22T03:12:36;23.90;79.00
18412;DHT22;27097;51.738;19.472;2023-06-22T03:15:04;23.90;79.30
18412;DHT22;27097;51.738;19.472;2023-06-22T03:17:31;23.90;78.30
18412;DHT22;27097;51.738;19.472;2023-06-22T03:19:57;23.90;78.10
18412;DHT22;27097;51.738;19.472;2023-06-22T03:22:24;23.90;78.30
18412;DHT22;27097;51.738;19.472;2023-06-22T03:24:53;23.80;78.20
18412;DHT22;27097;51.738;19.472;2023-06-22T03:27:19;23.80;78.40
18412;DHT22;27097;51.738;19.472;2023-06-22T03:29:46;23.80;78.80
18412;DHT22;27097;51.738;19.472;2023-06-22T03:32:13;23.80;78.20
18412;DHT22;27097;51.738;19.472;2023-06-22T03:34:40;23.80;78.10
18412;DHT22;27097;51.738;19.472;2023-06-22T03:37:12;23.80;78.10
18412;DHT22;27097;51.738;19.472;2023-06-22T03:39:40;23.90;77.90
18412;DHT22;27097;51.738;19.472;2023-06-22T03:42:08;23.90;77.50
18412;DHT22;27097;51.738;19.472;2023-06-22T03:44:35;23.90;76.70
18412;DHT22;27097;51.738;19.472;2023-06-22T03:47:02;23.90;76.70
18412;DHT22;27097;51.738;19.472;2023-06-22T03:49:29;23.90;76.90
18412;DHT22;27097;51.738;19.472;2023-06-22T03:51:56;23.90;76.60
18412;DHT22;27097;51.738;19.472;2023-06-22T03:54:23;23.90;76.20
18412;DHT22;27097;51.738;19.472;2023-06-22T03:56:49;23.90;75.70
18412;DHT22;27097;51.738;19.472;2023-06-22T03:59:18;24.00;76.30
18412;DHT22;27097;51.738;19.472;2023-06-22T04:01:44;24.00;75.10
18412;DHT22;27097;51.738;19.472;2023-06-22T04:04:12;24.00;74.90
18412;DHT22;27097;51.738;19.472;2023-06-22T04:06:39;24.10;74.80
18412;DHT22;27097;51.738;19.472;2023-06-22T04:09:06;24.10;74.70
18412;DHT22;27097;51.738;19.472;2023-06-22T04:11:33;24.10;74.60
18412;DHT22;27097;51.738;19.472;2023-06-22T04:14:00;24.20;74.20
18412;DHT22;27097;51.738;19.472;2023-06-22T04:16:28;24.20;73.90
18412;DHT22;27097;51.738;19.472;2023-06-22T04:18:55;24.30;73.70
18412;DHT22;27097;51.738;19.472;2023-06-22T04:21:22;24.30;73.60
18412;DHT22;27097;51.738;19.472;2023-06-22T04:23:48;24.30;73.50
18412;DHT22;27097;51.738;19.472;2023-06-22T04:26:15;24.40;72.80
18412;DHT22;27097;51.738;19.472;2023-06-22T04:28:42;24.50;72.70
18412;DHT22;27097;51.738;19.472;2023-06-22T04:31:15;24.50;72.00
18412;DHT22;27097;51.738;19.472;2023-06-22T04:33:43;24.50;72.10
18412;DHT22;27097;51.738;19.472;2023-06-22T04:36:10;24.60;72.10
18412;DHT22;27097;51.738;19.472;2023-06-22T04:38:38;24.60;71.90
18412;DHT22;27097;51.738;19.472;2023-06-22T04:41:05;24.60;72.60
18412;DHT22;27097;51.738;19.472;2023-06-22T04:43:35;24.70;72.50
18412;DHT22;27097;51.738;19.472;2023-06-22T04:46:01;24.70;71.00
18412;DHT22;27097;51.738;19.472;2023-06-22T04:48:29;24.70;70.90
18412;DHT22;27097;51.738;19.472;2023-06-22T04:50:59;24.70;70.70
18412;DHT22;27097;51.738;19.472;2023-06-22T04:53:29;24.80;70.70
18412;DHT22;27097;51.738;19.472;2023-06-22T04:55:56;24.90;70.50
18412;DHT22;27097;51.738;19.472;2023-06-22T04:58:23;25.00;70.40
18412;DHT22;27097;51.738;19.472;2023-06-22T05:00:56;25.00;69.10
18412;DHT22;27097;51.738;19.472;2023-06-22T05:03:25;25.10;69.40
18412;DHT22;27097;51.738;19.472;2023-06-22T05:05:52;25.20;69.30
18412;DHT22;27097;51.738;19.472;2023-06-22T05:08:20;25.30;68.20
18412;DHT22;27097;51.738;19.472;2023-06-22T05:10:52;25.30;67.40
18412;DHT22;27097;51.738;19.472;2023-06-22T05:13:18;25.30;67.60
18412;DHT22;27097;51.738;19.472;2023-06-22T05:15:47;25.40;67.70
18412;DHT22;27097;51.738;19.472;2023-06-22T05:18:14;25.40;67.30
18412;DHT22;27097;51.738;19.472;2023-06-22T05:20:40;25.50;68.20
18412;DHT22;27097;51.738;19.472;2023-06-22T05:23:07;25.50;67.70
18412;DHT22;27097;51.738;19.472;2023-06-22T05:25:35;25.50;67.60
18412;DHT22;27097;51.738;19.472;2023-06-22T05:28:02;25.60;66.70
18412;DHT22;27097;51.738;19.472;2023-06-22T05:30:36;25.60;66.40
18412;DHT22;27097;51.738;19.472;2023-06-22T05:33:03;25.60;66.50
18412;DHT22;27097;51.738;19.472;2023-06-22T05:35:31;25.70;67.60
18412;DHT22;27097;51.738;19.472;2023-06-22T05:37:57;25.70;68.30
18412;DHT22;27097;51.738;19.472;2023-06-22T05:40:24;25.70;66.30
18412;DHT22;27097;51.738;19.472;2023-06-22T05:42:54;25.80;66.80
18412;DHT22;27097;51.738;19.472;2023-06-22T05:45:20;25.80;65.70
18412;DHT22;27097;51.738;19.472;2023-06-22T05:47:47;25.80;66.90
18412;DHT22;27097;51.738;19.472;2023-06-22T05:50:14;25.80;66.30
18412;DHT22;27097;51.738;19.472;2023-06-22T05:52:41;25.90;66.20
18412;DHT22;27097;51.738;19.472;2023-06-22T05:55:08;25.90;66.90
18412;DHT22;27097;51.738;19.472;2023-06-22T05:57:35;25.90;66.90
18412;DHT22;27097;51.738;19.472;2023-06-22T06:00:04;25.90;67.00
18412;DHT22;27097;51.738;19.472;2023-06-22T06:02:36;26.00;68.80
18412;DHT22;27097;51.738;19.472;2023-06-22T06:05:03;26.00;67.60
18412;DHT22;27097;51.738;19.472;2023-06-22T06:07:30;26.00;66.10
18412;DHT22;27097;51.738;19.472;2023-06-22T06:09:59;26.10;65.80
18412;DHT22;27097;51.738;19.472;2023-06-22T06:12:26;26.10;66.20
18412;DHT22;27097;51.738;19.472;2023-06-22T06:14:53;26.10;66.90
18412;DHT22;27097;51.738;19.472;2023-06-22T06:17:23;26.10;65.60
18412;DHT22;27097;51.738;19.472;2023-06-22T06:19:50;26.10;65.40
18412;DHT22;27097;51.738;19.472;2023-06-22T06:22:17;26.10;66.10
18412;DHT22;27097;51.738;19.472;2023-06-22T06:24:44;26.10;66.40
18412;DHT22;27097;51.738;19.472;2023-06-22T06:27:11;26.10;66.40
18412;DHT22;27097;51.738;19.472;2023-06-22T06:29:37;26.20;66.50
18412;DHT22;27097;51.738;19.472;2023-06-22T06:32:05;26.20;66.10
18412;DHT22;27097;51.738;19.472;2023-06-22T06:34:33;26.20;66.80
18412;DHT22;27097;51.738;19.472;2023-06-22T06:37:00;26.20;66.20
18412;DHT22;27097;51.738;19.472;2023-06-22T06:39:26;26.20;65.50
18412;DHT22;27097;51.738;19.472;2023-06-22T06:41:53;26.20;65.20
18412;DHT22;27097;51.738;19.472;2023-06-22T06:44:20;26.20;64.70
18412;DHT22;27097;51.738;19.472;2023-06-22T06:46:47;26.20;64.70
18412;DHT22;27097;51.738;19.472;2023-06-22T06:49:14;26.30;64.10
18412;DHT22;27097;51.738;19.472;2023-06-22T06:51:42;26.30;63.10
18412;DHT22;27097;51.738;19.472;2023-06-22T06:54:09;26.30;63.00
18412;DHT22;27097;51.738;19.472;2023-06-22T06:56:36;26.30;62.60
18412;DHT22;27097;51.738;19.472;2023-06-22T06:59:02;26.30;62.30
18412;DHT22;27097;51.738;19.472;2023-06-22T07:01:29;26.30;62.40
18412;DHT22;27097;51.738;19.472;2023-06-22T07:03:59;26.30;62.50
18412;DHT22;27097;51.738;19.472;2023-06-22T07:06:26;26.30;62.30
18412;DHT22;27097;51.738;19.472;2023-06-22T07:08:59;26.40;63.00
18412;DHT22;27097;51.738;19.472;2023-06-22T07:11:26;26.40;63.00
18412;DHT22;27097;51.738;19.472;2023-06-22T07:13:53;26.40;63.40
18412;DHT22;27097;51.738;19.472;2023-06-22T07:16:19;26.40;63.00
18412;DHT22;27097;51.738;19.472;2023-06-22T07:18:46;26.40;63.20
18412;DHT22;27097;51.738;19.472;2023-06-22T07:21:13;26.40;63.50
18412;DHT22;27097;51.738;19.472;2023-06-22T07:23:40;26.50;63.60
18412;DHT22;27097;51.738;19.472;2023-06-22T07:26:08;26.50;63.70
18412;DHT22;27097;51.738;19.472;2023-06-22T07:28:35;26.50;63.40
18412;DHT22;27097;51.738;19.472;2023-06-22T07:31:03;26.50;63.00
18412;DHT22;27097;51.738;19.472;2023-06-22T07:33:30;26.50;62.80
18412;DHT22;27097;51.738;19.472;2023-06-22T07:35:57;26.60;62.80
18412;DHT22;27097;51.738;19.472;2023-06-22T07:38:24;26.60;62.50
18412;DHT22;27097;51.738;19.472;2023-06-22T07:40:51;26.60;62.70
18412;DHT22;27097;51.738;19.472;2023-06-22T07:43:20;26.60;62.50
18412;DHT22;27097;51.738;19.472;2023-06-22T07:45:48;26.60;63.60
18412;DHT22;27097;51.738;19.472;2023-06-22T07:48:19;26.70;62.30
18412;DHT22;27097;51.738;19.472;2023-06-22T07:50:46;26.70;62.00
18412;DHT22;27097;51.738;19.472;2023-06-22T07:53:13;26.70;61.80
18412;DHT22;27097;51.738;19.472;2023-06-22T07:55:40;26.80;61.60
18412;DHT22;27097;51.738;19.472;2023-06-22T07:58:09;26.80;61.20
18412;DHT22;27097;51.738;19.472;2023-06-22T08:00:37;26.80;58.90
18412;DHT22;27097;51.738;19.472;2023-06-22T08:03:04;26.80;58.80
18412;DHT22;27097;51.738;19.472;2023-06-22T08:05:31;26.80;58.70
18412;DHT22;27097;51.738;19.472;2023-06-22T08:07:58;26.80;58.50
18412;DHT22;27097;51.738;19.472;2023-06-22T08:10:25;26.80;57.60
18412;DHT22;27097;51.738;19.472;2023-06-22T08:12:52;26.80;56.80
18412;DHT22;27097;51.738;19.472;2023-06-22T08:15:19;26.90;57.30
18412;DHT22;27097;51.738;19.472;2023-06-22T08:17:48;26.90;57.80
18412;DHT22;27097;51.738;19.472;2023-06-22T08:20:15;26.90;58.00
18412;DHT22;27097;51.738;19.472;2023-06-22T08:22:43;26.90;58.10
18412;DHT22;27097;51.738;19.472;2023-06-22T08:25:11;26.90;57.90
18412;DHT22;27097;51.738;19.472;2023-06-22T08:27:38;26.90;57.90
18412;DHT22;27097;51.738;19.472;2023-06-22T08:30:06;26.90;58.00
18412;DHT22;27097;51.738;19.472;2023-06-22T08:32:33;27.00;58.10
18412;DHT22;27097;51.738;19.472;2023-06-22T08:35:02;27.00;58.00
18412;DHT22;27097;51.738;19.472;2023-06-22T08:37:29;27.00;57.70
18412;DHT22;27097;51.738;19.472;2023-06-22T08:39:57;27.10;57.90
18412;DHT22;27097;51.738;19.472;2023-06-22T08:42:23;27.10;57.40
18412;DHT22;27097;51.738;19.472;2023-06-22T08:44:51;27.10;57.00
18412;DHT22;27097;51.738;19.472;2023-06-22T08:47:18;27.10;57.10
18412;DHT22;27097;51.738;19.472;2023-06-22T08:49:45;27.10;56.70
18412;DHT22;27097;51.738;19.472;2023-06-22T08:52:14;27.10;56.50
18412;DHT22;27097;51.738;19.472;2023-06-22T08:54:41;27.10;56.40
18412;DHT22;27097;51.738;19.472;2023-06-22T08:57:10;27.20;56.40
18412;DHT22;27097;51.738;19.472;2023-06-22T08:59:37;27.20;56.40
18412;DHT22;27097;51.738;19.472;2023-06-22T09:02:05;27.20;56.20
18412;DHT22;27097;51.738;19.472;2023-06-22T09:04:32;27.20;55.90
18412;DHT22;27097;51.738;19.472;2023-06-22T09:07:00;27.30;56.00
18412;DHT22;27097;51.738;19.472;2023-06-22T09:09:28;27.30;55.80
18412;DHT22;27097;51.738;19.472;2023-06-22T09:11:55;27.30;55.80
18412;DHT22;27097;51.738;19.472;2023-06-22T09:14:22;27.40;55.60
18412;DHT22;27097;51.738;19.472;2023-06-22T09:16:49;27.40;56.10
18412;DHT22;27097;51.738;19.472;2023-06-22T09:19:16;27.40;55.80
18412;DHT22;27097;51.738;19.472;2023-06-22T09:21:43;27.40;55.20
18412;DHT22;27097;51.738;19.472;2023-06-22T09:24:09;27.40;54.90
18412;DHT22;27097;51.738;19.472;2023-06-22T09:26:38;27.50;55.30
18412;DHT22;27097;51.738;19.472;2023-06-22T09:29:05;27.50;55.40
18412;DHT22;27097;51.738;19.472;2023-06-22T09:31:32;27.50;55.10
18412;DHT22;27097;51.738;19.472;2023-06-22T09:33:58;27.50;54.50
18412;DHT22;27097;51.738;19.472;2023-06-22T09:36:25;27.50;54.10
18412;DHT22;27097;51.738;19.472;2023-06-22T09:38:52;27.60;53.50
18412;DHT22;27097;51.738;19.472;2023-06-22T09:41:21;27.60;53.60
18412;DHT22;27097;51.738;19.472;2023-06-22T09:43:49;27.60;53.40
18412;DHT22;27097;51.738;19.472;2023-06-22T09:46:16;27.60;52.90
18412;DHT22;27097;51.738;19.472;2023-06-22T09:48:43;27.60;52.50
18412;DHT22;27097;51.738;19.472;2023-06-22T09:51:12;27.60;52.50
18412;DHT22;27097;51.738;19.472;2023-06-22T09:53:38;27.60;52.50
18412;DHT22;27097;51.738;19.472;2023-06-22T09:56:05;27.70;52.70
18412;DHT22;27097;51.738;19.472;2023-06-22T09:58:32;27.70;53.00
18412;DHT22;27097;51.738;19.472;2023-06-22T10:01:01;27.70;52.40
18412;DHT22;27097;51.738;19.472;2023-06-22T10:03:28;27.80;52.80
18412;DHT22;27097;51.738;19.472;2023-06-22T10:05:54;27.80;52.70
18412;DHT22;27097;51.738;19.472;2023-06-22T10:08:21;27.80;52.10
18412;DHT22;27097;51.738;19.472;2023-06-22T10:10:48;27.90;52.00
18412;DHT22;27097;51.738;19.472;2023-06-22T10:13:15;27.90;52.00
18412;DHT22;27097;51.738;19.472;2023-06-22T10:15:42;28.00;51.60
18412;DHT22;27097;51.738;19.472;2023-06-22T10:18:12;28.00;51.10
18412;DHT22;27097;51.738;19.472;2023-06-22T10:20:39;28.10;51.00
18412;DHT22;27097;51.738;19.472;2023-06-22T10:23:06;28.10;51.00
18412;DHT22;27097;51.738;19.472;2023-06-22T10:25:32;28.00;50.40
18412;DHT22;27097;51.738;19.472;2023-06-22T10:27:59;28.00;51.30
18412;DHT22;27097;51.738;19.472;2023-06-22T10:30:26;28.00;51.70
18412;DHT22;27097;51.738;19.472;2023-06-22T10:32:54;28.00;51.80
18412;DHT22;27097;51.738;19.472;2023-06-22T10:35:22;28.00;51.80
18412;DHT22;27097;51.738;19.472;2023-06-22T10:37:49;28.00;51.30
18412;DHT22;27097;51.738;19.472;2023-06-22T10:40:17;28.00;50.40
18412;DHT22;27097;51.738;19.472;2023-06-22T10:42:44;28.10;50.20
18412;DHT22;27097;51.738;19.472;2023-06-22T10:45:11;28.10;50.40
18412;DHT22;27097;51.738;19.472;2023-06-22T10:47:39;28.10;50.50
18412;DHT22;27097;51.738;19.472;2023-06-22T10:50:08;28.10;50.30
18412;DHT22;27097;51.738;19.472;2023-06-22T10:52:36;28.20;50.80
18412;DHT22;27097;51.738;19.472;2023-06-22T10:55:03;28.30;50.70
18412;DHT22;27097;51.738;19.472;2023-06-22T10:57:30;28.40;50.70
18412;DHT22;27097;51.738;19.472;2023-06-22T10:59:57;28.60;50.50
18412;DHT22;27097;51.738;19.472;2023-06-22T11:02:24;28.70;50.10
18412;DHT22;27097;51.738;19.472;2023-06-22T11:04:51;28.90;48.90
18412;DHT22;27097;51.738;19.472;2023-06-22T11:07:18;29.00;48.80
18412;DHT22;27097;51.738;19.472;2023-06-22T11:09:46;29.10;48.30
18412;DHT22;27097;51.738;19.472;2023-06-22T11:12:13;29.20;48.30
18412;DHT22;27097;51.738;19.472;2023-06-22T11:14:40;29.20;47.20
18412;DHT22;27097;51.738;19.472;2023-06-22T11:17:06;29.30;47.40
18412;DHT22;27097;51.738;19.472;2023-06-22T11:19:33;29.30;46.90
18412;DHT22;27097;51.738;19.472;2023-06-22T11:22:00;29.40;47.20
18412;DHT22;27097;51.738;19.472;2023-06-22T11:24:27;29.30;47.80
18412;DHT22;27097;51.738;19.472;2023-06-22T11:26:55;29.30;47.40
18412;DHT22;27097;51.738;19.472;2023-06-22T11:29:22;29.30;47.00
18412;DHT22;27097;51.738;19.472;2023-06-22T11:31:51;29.30;47.70
18412;DHT22;27097;51.738;19.472;2023-06-22T11:34:17;29.30;48.80
18412;DHT22;27097;51.738;19.472;2023-06-22T11:36:44;29.30;49.30
18412;DHT22;27097;51.738;19.472;2023-06-22T11:39:12;29.20;50.00
18412;DHT22;27097;51.738;19.472;2023-06-22T11:41:40;29.00;50.00
18412;DHT22;27097;51.738;19.472;2023-06-22T11:44:08;28.80;50.00
18412;DHT22;27097;51.738;19.472;2023-06-22T11:46:36;28.70;49.10
18412;DHT22;27097;51.738;19.472;2023-06-22T11:49:03;28.60;49.60
18412;DHT22;27097;51.738;19.472;2023-06-22T11:51:30;28.50;50.80
18412;DHT22;27097;51.738;19.472;2023-06-22T11:53:57;28.40;50.50
18412;DHT22;27097;51.738;19.472;2023-06-22T11:56:24;28.30;50.40
18412;DHT22;27097;51.738;19.472;2023-06-22T11:58:51;28.30;50.30
18412;DHT22;27097;51.738;19.472;2023-06-22T12:01:21;28.20;49.80
18412;DHT22;27097;51.738;19.472;2023-06-22T12:03:47;28.10;50.30
18412;DHT22;27097;51.738;19.472;2023-06-22T12:06:14;28.10;50.00
18412;DHT22;27097;51.738;19.472;2023-06-22T12:08:41;28.00;49.80
18412;DHT22;27097;51.738;19.472;2023-06-22T12:11:08;28.00;50.30
18412;DHT22;27097;51.738;19.472;2023-06-22T12:13:35;27.90;49.20
18412;DHT22;27097;51.738;19.472;2023-06-22T12:16:02;27.90;49.70
18412;DHT22;27097;51.738;19.472;2023-06-22T12:18:30;27.90;49.30
18412;DHT22;27097;51.738;19.472;2023-06-22T12:20:57;27.90;49.10
18412;DHT22;27097;51.738;19.472;2023-06-22T12:23:24;27.90;49.40
18412;DHT22;27097;51.738;19.472;2023-06-22T12:25:51;27.90;49.30
18412;DHT22;27097;51.738;19.472;2023-06-22T12:28:18;27.80;49.80
18412;DHT22;27097;51.738;19.472;2023-06-22T12:30:45;27.80;50.10
18412;DHT22;27097;51.738;19.472;2023-06-22T12:33:12;27.80;50.10
18412;DHT22;27097;51.738;19.472;2023-06-22T12:35:40;27.80;49.20
18412;DHT22;27097;51.738;19.472;2023-06-22T12:38:07;27.70;49.70
18412;DHT22;27097;51.738;19.472;2023-06-22T12:40:34;27.70;50.20
18412;DHT22;27097;51.738;19.472;2023-06-22T12:43:01;27.70;50.40
18412;DHT22;27097;51.738;19.472;2023-06-22T12:45:28;27.70;50.50
18412;DHT22;27097;51.738;19.472;2023-06-22T12:47:59;27.70;50.90
18412;DHT22;27097;51.738;19.472;2023-06-22T12:50:26;27.70;51.30
18412;DHT22;27097;51.738;19.472;2023-06-22T12:52:54;27.70;51.80
18412;DHT22;27097;51.738;19.472;2023-06-22T12:55:21;27.70;52.00
18412;DHT22;27097;51.738;19.472;2023-06-22T12:57:48;27.70;52.20
18412;DHT22;27097;51.738;19.472;2023-06-22T13:00:16;27.60;52.30
18412;DHT22;27097;51.738;19.472;2023-06-22T13:02:43;27.60;52.40
18412;DHT22;27097;51.738;19.472;2023-06-22T13:05:10;27.60;52.50
18412;DHT22;27097;51.738;19.472;2023-06-22T13:07:37;27.60;52.70
18412;DHT22;27097;51.738;19.472;2023-06-22T13:10:14;27.60;52.80
18412;DHT22;27097;51.738;19.472;2023-06-22T13:12:47;27.60;52.70
18412;DHT22;27097;51.738;19.472;2023-06-22T13:15:20;27.60;53.10
18412;DHT22;27097;51.738;19.472;2023-06-22T13:17:47;27.60;53.40
18412;DHT22;27097;51.738;19.472;2023-06-22T13:20:14;27.60;53.10
18412;DHT22;27097;51.738;19.472;2023-06-22T13:22:41;27.60;52.80
18412;DHT22;27097;51.738;19.472;2023-06-22T13:25:10;27.60;53.00
18412;DHT22;27097;51.738;19.472;2023-06-22T13:27:38;27.60;53.40
18412;DHT22;27097;51.738;19.472;2023-06-22T13:30:06;27.60;53.90
18412;DHT22;27097;51.738;19.472;2023-06-22T13:32:35;27.60;54.10
18412;DHT22;27097;51.738;19.472;2023-06-22T13:35:05;27.60;54.60
18412;DHT22;27097;51.738;19.472;2023-06-22T13:37:32;27.60;55.20
18412;DHT22;27097;51.738;19.472;2023-06-22T13:39:58;27.60;55.50
18412;DHT22;27097;51.738;19.472;2023-06-22T13:42:27;27.60;55.70
18412;DHT22;27097;51.738;19.472;2023-06-22T13:44:54;27.60;56.10
18412;DHT22;27097;51.738;19.472;2023-06-22T13:47:20;27.60;56.10
18412;DHT22;27097;51.738;19.472;2023-06-22T13:49:47;27.60;55.80
18412;DHT22;27097;51.738;19.472;2023-06-22T13:52:14;27.60;55.90
18412;DHT22;27097;51.738;19.472;2023-06-22T13:54:41;27.60;56.00
18412;DHT22;27097;51.738;19.472;2023-06-22T13:57:08;27.60;56.10
18412;DHT22;27097;51.738;19.472;2023-06-22T13:59:36;27.60;56.10
18412;DHT22;27097;51.738;19.472;2023-06-22T14:02:03;27.70;56.50
18412;DHT22;27097;51.738;19.472;2023-06-22T14:04:30;27.60;56.60
18412;DHT22;27097;51.738;19.472;2023-06-22T14:06:57;27.70;56.80
18412;DHT22;27097;51.738;19.472;2023-06-22T14:09:24;27.60;56.80
18412;DHT22;27097;51.738;19.472;2023-06-22T14:11:51;27.60;57.00
18412;DHT22;27097;51.738;19.472;2023-06-22T14:14:18;27.70;57.20
18412;DHT22;27097;51.738;19.472;2023-06-22T14:16:46;27.60;57.40
18412;DHT22;27097;51.738;19.472;2023-06-22T14:19:14;27.70;57.70
18412;DHT22;27097;51.738;19.472;2023-06-22T14:21:41;27.70;58.10
18412;DHT22;27097;51.738;19.472;2023-06-22T14:24:08;27.70;58.20
18412;DHT22;27097;51.738;19.472;2023-06-22T14:26:35;27.70;58.50
18412;DHT22;27097;51.738;19.472;2023-06-22T14:29:02;27.70;58.60
18412;DHT22;27097;51.738;19.472;2023-06-22T14:31:29;27.70;58.70
18412;DHT22;27097;51.738;19.472;2023-06-22T14:33:57;27.70;58.90
18412;DHT22;27097;51.738;19.472;2023-06-22T14:36:24;27.70;59.00
18412;DHT22;27097;51.738;19.472;2023-06-22T14:38:51;27.70;58.80
18412;DHT22;27097;51.738;19.472;2023-06-22T14:41:18;27.60;58.90
18412;DHT22;27097;51.738;19.472;2023-06-22T14:43:46;27.70;59.00
18412;DHT22;27097;51.738;19.472;2023-06-22T14:46:14;27.70;58.90
18412;DHT22;27097;51.738;19.472;2023-06-22T14:48:41;27.70;59.00
18412;DHT22;27097;51.738;19.472;2023-06-22T14:51:09;27.70;58.80
18412;DHT22;27097;51.738;19.472;2023-06-22T14:53:36;27.60;58.80
18412;DHT22;27097;51.738;19.472;2023-06-22T14:56:04;27.70;58.70
18412;DHT22;27097;51.738;19.472;2023-06-22T14:58:31;27.60;58.70
18412;DHT22;27097;51.738;19.472;2023-06-22T15:00:59;27.60;58.70
18412;DHT22;27097;51.738;19.472;2023-06-22T15:03:26;27.60;58.60
18412;DHT22;27097;51.738;19.472;2023-06-22T15:05:54;27.60;58.80
18412;DHT22;27097;51.738;19.472;2023-06-22T15:08:23;27.60;59.00
18412;DHT22;27097;51.738;19.472;2023-06-22T15:10:50;27.60;59.30
18412;DHT22;27097;51.738;19.472;2023-06-22T15:13:17;27.60;59.60
18412;DHT22;27097;51.738;19.472;2023-06-22T15:15:45;27.60;59.90
18412;DHT22;27097;51.738;19.472;2023-06-22T15:18:13;27.50;60.20
18412;DHT22;27097;51.738;19.472;2023-06-22T15:20:39;27.60;61.20